createdAt,value
2017-11-07T00:00:14.314Z,1019.24
2017-11-07T00:00:54.839Z,1019.24
2017-11-07T00:01:35.332Z,1019.26
2017-11-07T00:02:15.866Z,1019.25
2017-11-07T00:02:56.409Z,1019.23
2017-11-07T00:03:36.936Z,1019.25
2017-11-07T00:04:17.462Z,1019.25
2017-11-07T00:04:57.989Z,1019.26
2017-11-07T00:05:38.525Z,1019.23
2017-11-07T00:06:19.041Z,1019.24
2017-11-07T00:06:59.565Z,1019.25
2017-11-07T00:07:40.090Z,1019.25
2017-11-07T00:08:20.614Z,1019.26
2017-11-07T00:09:01.169Z,1019.24
2017-11-07T00:09:41.672Z,1019.22
2017-11-07T00:10:22.205Z,1019.22
2017-11-07T00:11:02.728Z,1019.22
2017-11-07T00:11:43.260Z,1019.21
2017-11-07T00:12:23.777Z,1019.23
2017-11-07T00:13:04.313Z,1019.22
2017-11-07T00:13:44.830Z,1019.25
2017-11-07T00:14:25.371Z,1019.27
2017-11-07T00:15:05.912Z,1019.3
2017-11-07T00:15:46.450Z,1019.29
2017-11-07T00:16:26.972Z,1019.28
2017-11-07T00:17:07.517Z,1019.33
2017-11-07T00:17:48.047Z,1019.32
2017-11-07T00:18:28.595Z,1019.34
2017-11-07T00:19:09.129Z,1019.33
2017-11-07T00:19:49.676Z,1019.32
2017-11-07T00:20:30.202Z,1019.33
2017-11-07T00:21:10.725Z,1019.34
2017-11-07T00:21:51.256Z,1019.33
2017-11-07T00:22:31.785Z,1019.35
2017-11-07T00:23:12.325Z,1019.33
2017-11-07T00:23:52.868Z,1019.31
2017-11-07T00:24:33.400Z,1019.26
2017-11-07T00:25:13.923Z,1019.31
2017-11-07T00:25:54.457Z,1019.27
2017-11-07T00:26:34.982Z,1019.29
2017-11-07T00:27:15.501Z,1019.3
2017-11-07T00:27:56.029Z,1019.27
2017-11-07T00:28:36.546Z,1019.3
2017-11-07T00:29:17.072Z,1019.3
2017-11-07T00:29:57.614Z,1019.3
2017-11-07T00:30:38.130Z,1019.28
2017-11-07T00:31:18.641Z,1019.3
2017-11-07T00:31:59.178Z,1019.26
2017-11-07T00:32:39.700Z,1019.27
2017-11-07T00:33:20.229Z,1019.26
2017-11-07T00:34:00.811Z,1019.31
2017-11-07T00:34:41.331Z,1019.28
2017-11-07T00:35:21.871Z,1019.31
2017-11-07T00:36:02.410Z,1019.28
2017-11-07T00:36:42.945Z,1019.26
2017-11-07T00:37:23.476Z,1019.27
2017-11-07T00:38:04.002Z,1019.26
2017-11-07T00:38:44.535Z,1019.26
2017-11-07T00:39:25.072Z,1019.26
2017-11-07T00:40:05.612Z,1019.26
2017-11-07T00:40:46.148Z,1019.25
2017-11-07T00:41:26.681Z,1019.24
2017-11-07T00:42:07.217Z,1019.24
2017-11-07T00:42:47.741Z,1019.22
2017-11-07T00:43:28.274Z,1019.26
2017-11-07T00:44:08.795Z,1019.2
2017-11-07T00:44:49.307Z,1019.22
2017-11-07T00:45:29.827Z,1019.23
2017-11-07T00:46:10.348Z,1019.21
2017-11-07T00:46:50.874Z,1019.24
2017-11-07T00:47:31.392Z,1019.21
2017-11-07T00:48:11.918Z,1019.24
2017-11-07T00:48:52.453Z,1019.2
2017-11-07T00:49:32.998Z,1019.18
2017-11-07T00:50:13.528Z,1019.2
2017-11-07T00:50:54.052Z,1019.2
2017-11-07T00:51:34.573Z,1019.22
2017-11-07T00:52:15.105Z,1019.18
2017-11-07T00:52:55.645Z,1019.23
2017-11-07T00:53:36.172Z,1019.19
2017-11-07T00:54:16.699Z,1019.23
2017-11-07T00:54:57.218Z,1019.25
2017-11-07T00:55:37.754Z,1019.25
2017-11-07T00:56:18.269Z,1019.27
2017-11-07T00:56:58.795Z,1019.28
2017-11-07T00:57:39.314Z,1019.29
2017-11-07T00:58:19.855Z,1019.28
2017-11-07T00:59:00.407Z,1019.26
2017-11-07T00:59:40.952Z,1019.29
2017-11-07T01:00:21.487Z,1019.28
2017-11-07T01:01:02.017Z,1019.28
2017-11-07T01:01:42.557Z,1019.3
2017-11-07T01:02:23.099Z,1019.26
2017-11-07T01:03:03.617Z,1019.3
2017-11-07T01:03:44.150Z,1019.29
2017-11-07T01:04:24.677Z,1019.25
2017-11-07T01:05:05.200Z,1019.26
2017-11-07T01:05:45.720Z,1019.24
2017-11-07T01:06:26.245Z,1019.21
2017-11-07T01:07:06.766Z,1019.22
2017-11-07T01:07:47.302Z,1019.23
2017-11-07T01:08:27.898Z,1019.21
2017-11-07T01:09:08.419Z,1019.19
2017-11-07T01:09:48.950Z,1019.2
2017-11-07T01:10:29.466Z,1019.23
2017-11-07T01:11:09.997Z,1019.19
2017-11-07T01:11:50.514Z,1019.23
2017-11-07T01:12:31.053Z,1019.23
2017-11-07T01:13:11.603Z,1019.24
2017-11-07T01:13:52.100Z,1019.2
2017-11-07T01:14:32.621Z,1019.21
2017-11-07T01:15:13.155Z,1019.23
2017-11-07T01:15:53.682Z,1019.22
2017-11-07T01:16:34.213Z,1019.2
2017-11-07T01:17:14.732Z,1019.18
2017-11-07T01:17:55.260Z,1019.17
2017-11-07T01:18:35.774Z,1019.15
2017-11-07T01:19:16.317Z,1019.14
2017-11-07T01:19:56.831Z,1019.19
2017-11-07T01:20:37.355Z,1019.18
2017-11-07T01:21:17.898Z,1019.17
2017-11-07T01:21:58.435Z,1019.16
2017-11-07T01:22:38.978Z,1019.15
2017-11-07T01:23:19.493Z,1019.14
2017-11-07T01:24:00.013Z,1019.11
2017-11-07T01:24:40.541Z,1019.14
2017-11-07T01:25:21.065Z,1019.13
2017-11-07T01:26:01.595Z,1019.12
2017-11-07T01:26:42.125Z,1019.11
2017-11-07T01:27:22.662Z,1019.12
2017-11-07T01:28:03.190Z,1019.13
2017-11-07T01:28:43.734Z,1019.11
2017-11-07T01:29:24.259Z,1019.13
2017-11-07T01:30:04.816Z,1019.15
2017-11-07T01:30:45.338Z,1019.11
2017-11-07T01:31:25.871Z,1019.13
2017-11-07T01:32:06.375Z,1019.14
2017-11-07T01:32:46.912Z,1019.15
2017-11-07T01:33:27.430Z,1019.13
2017-11-07T01:34:07.976Z,1019.11
2017-11-07T01:34:48.506Z,1019.08
2017-11-07T01:35:29.028Z,1019.07
2017-11-07T01:36:09.603Z,1019.06
2017-11-07T01:36:50.131Z,1019.04
2017-11-07T01:37:30.658Z,1019.02
2017-11-07T01:38:11.203Z,1019.04
2017-11-07T01:38:51.719Z,1019.06
2017-11-07T01:39:32.242Z,1019.07
2017-11-07T01:40:12.771Z,1019.07
2017-11-07T01:40:53.292Z,1019.11
2017-11-07T01:41:33.819Z,1019.09
2017-11-07T01:42:14.357Z,1019.1
2017-11-07T01:42:54.878Z,1019.1
2017-11-07T01:43:35.409Z,1019.1
2017-11-07T01:44:15.944Z,1019.12
2017-11-07T01:44:56.480Z,1019.07
2017-11-07T01:45:37.014Z,1019.06
2017-11-07T01:46:17.532Z,1019.09
2017-11-07T01:46:58.088Z,1019.06
2017-11-07T01:47:38.602Z,1019.06
2017-11-07T01:48:19.125Z,1019.03
2017-11-07T01:48:59.641Z,1019.08
2017-11-07T01:49:40.170Z,1019.02
2017-11-07T01:50:20.700Z,1019
2017-11-07T01:51:01.232Z,1019
2017-11-07T01:51:41.781Z,1019
2017-11-07T01:52:22.317Z,1018.99
2017-11-07T01:53:02.828Z,1018.98
2017-11-07T01:53:43.347Z,1019.01
2017-11-07T01:54:23.879Z,1019
2017-11-07T01:55:04.404Z,1019
2017-11-07T01:55:44.942Z,1018.99
2017-11-07T01:56:25.463Z,1018.99
2017-11-07T01:57:05.987Z,1018.96
2017-11-07T01:57:46.531Z,1018.98
2017-11-07T01:58:27.061Z,1018.97
2017-11-07T01:59:07.580Z,1018.96
2017-11-07T01:59:48.105Z,1018.96
2017-11-07T02:00:28.636Z,1018.96
2017-11-07T02:01:09.161Z,1018.93
2017-11-07T02:01:49.691Z,1018.89
2017-11-07T02:02:30.212Z,1018.9
2017-11-07T02:03:10.749Z,1018.85
2017-11-07T02:03:51.282Z,1018.85
2017-11-07T02:04:31.818Z,1018.87
2017-11-07T02:05:12.351Z,1018.88
2017-11-07T02:05:52.878Z,1018.88
2017-11-07T02:06:33.421Z,1018.83
2017-11-07T02:07:13.936Z,1018.86
2017-11-07T02:07:54.471Z,1018.86
2017-11-07T02:08:35.004Z,1018.87
2017-11-07T02:09:15.534Z,1018.83
2017-11-07T02:09:56.096Z,1018.87
2017-11-07T02:10:36.638Z,1018.91
2017-11-07T02:11:17.164Z,1018.9
2017-11-07T02:11:57.681Z,1018.9
2017-11-07T02:12:38.216Z,1018.89
2017-11-07T02:13:25.500Z,1018.87
2017-11-07T02:14:06.050Z,1018.86
2017-11-07T02:14:46.594Z,1018.85
2017-11-07T02:15:27.123Z,1018.85
2017-11-07T02:16:07.655Z,1018.85
2017-11-07T02:16:48.181Z,1018.8
2017-11-07T02:17:28.709Z,1018.84
2017-11-07T02:18:09.244Z,1018.78
2017-11-07T02:18:49.779Z,1018.83
2017-11-07T02:19:30.304Z,1018.82
2017-11-07T02:20:10.839Z,1018.86
2017-11-07T02:20:51.369Z,1018.83
2017-11-07T02:21:31.907Z,1018.82
2017-11-07T02:22:12.447Z,1018.8
2017-11-07T02:22:52.982Z,1018.79
2017-11-07T02:23:33.498Z,1018.81
2017-11-07T02:24:14.033Z,1018.76
2017-11-07T02:24:54.551Z,1018.79
2017-11-07T02:25:35.082Z,1018.77
2017-11-07T02:26:15.609Z,1018.76
2017-11-07T02:26:56.142Z,1018.76
2017-11-07T02:27:36.677Z,1018.76
2017-11-07T02:28:17.216Z,1018.74
2017-11-07T02:28:57.746Z,1018.74
2017-11-07T02:29:38.277Z,1018.71
2017-11-07T02:30:18.828Z,1018.72
2017-11-07T02:30:59.352Z,1018.68
2017-11-07T02:31:39.869Z,1018.65
2017-11-07T02:32:20.390Z,1018.68
2017-11-07T02:33:00.913Z,1018.65
2017-11-07T02:33:41.442Z,1018.65
2017-11-07T02:34:21.975Z,1018.66
2017-11-07T02:35:02.501Z,1018.64
2017-11-07T02:35:43.035Z,1018.67
2017-11-07T02:36:23.561Z,1018.62
2017-11-07T02:37:04.111Z,1018.67
2017-11-07T02:37:44.626Z,1018.66
2017-11-07T02:38:25.155Z,1018.62
2017-11-07T02:39:05.683Z,1018.6
2017-11-07T02:39:46.220Z,1018.58
2017-11-07T02:40:26.746Z,1018.58
2017-11-07T02:41:07.283Z,1018.58
2017-11-07T02:41:47.810Z,1018.59
2017-11-07T02:42:28.343Z,1018.54
2017-11-07T02:43:08.895Z,1018.56
2017-11-07T02:43:49.432Z,1018.52
2017-11-07T02:44:29.948Z,1018.53
2017-11-07T02:45:10.487Z,1018.52
2017-11-07T02:45:51.010Z,1018.47
2017-11-07T02:46:31.540Z,1018.5
2017-11-07T02:47:12.076Z,1018.48
2017-11-07T02:47:52.604Z,1018.46
2017-11-07T02:48:33.136Z,1018.46
2017-11-07T02:49:13.672Z,1018.47
2017-11-07T02:49:54.203Z,1018.48
2017-11-07T02:50:34.736Z,1018.46
2017-11-07T02:51:15.261Z,1018.47
2017-11-07T02:51:55.807Z,1018.45
2017-11-07T02:52:36.338Z,1018.42
2017-11-07T02:53:16.877Z,1018.43
2017-11-07T02:53:57.399Z,1018.43
2017-11-07T02:54:37.947Z,1018.43
2017-11-07T02:55:18.487Z,1018.43
2017-11-07T02:55:59.016Z,1018.44
2017-11-07T02:56:39.531Z,1018.44
2017-11-07T02:57:20.047Z,1018.44
2017-11-07T02:58:00.577Z,1018.47
2017-11-07T02:58:41.100Z,1018.41
2017-11-07T02:59:21.641Z,1018.47
2017-11-07T03:00:02.160Z,1018.47
2017-11-07T03:00:42.742Z,1018.44
2017-11-07T03:01:23.236Z,1018.42
2017-11-07T03:02:03.767Z,1018.46
2017-11-07T03:02:44.335Z,1018.44
2017-11-07T03:03:24.831Z,1018.47
2017-11-07T03:04:05.355Z,1018.47
2017-11-07T03:04:45.874Z,1018.43
2017-11-07T03:05:26.415Z,1018.44
2017-11-07T03:06:06.929Z,1018.48
2017-11-07T03:06:47.473Z,1018.47
2017-11-07T03:07:28.002Z,1018.44
2017-11-07T03:08:08.534Z,1018.44
2017-11-07T03:08:49.066Z,1018.45
2017-11-07T03:09:29.582Z,1018.42
2017-11-07T03:10:10.109Z,1018.47
2017-11-07T03:10:50.626Z,1018.42
2017-11-07T03:11:31.155Z,1018.43
2017-11-07T03:12:11.692Z,1018.43
2017-11-07T03:12:52.227Z,1018.45
2017-11-07T03:13:32.750Z,1018.41
2017-11-07T03:14:13.286Z,1018.41
2017-11-07T03:14:53.820Z,1018.39
2017-11-07T03:15:34.347Z,1018.4
2017-11-07T03:16:14.888Z,1018.38
2017-11-07T03:16:55.418Z,1018.42
2017-11-07T03:17:35.951Z,1018.42
2017-11-07T03:18:16.471Z,1018.36
2017-11-07T03:18:56.995Z,1018.45
2017-11-07T03:19:37.520Z,1018.42
2017-11-07T03:20:18.042Z,1018.39
2017-11-07T03:20:58.580Z,1018.39
2017-11-07T03:21:39.130Z,1018.4
2017-11-07T03:22:19.667Z,1018.35
2017-11-07T03:23:00.205Z,1018.4
2017-11-07T03:23:40.736Z,1018.4
2017-11-07T03:24:21.247Z,1018.43
2017-11-07T03:25:01.780Z,1018.45
2017-11-07T03:25:42.303Z,1018.46
2017-11-07T03:26:22.820Z,1018.42
2017-11-07T03:27:03.335Z,1018.43
2017-11-07T03:27:43.834Z,1018.41
2017-11-07T03:28:24.375Z,1018.37
2017-11-07T03:29:04.900Z,1018.41
2017-11-07T03:29:45.411Z,1018.42
2017-11-07T03:30:25.959Z,1018.41
2017-11-07T03:31:06.488Z,1018.47
2017-11-07T03:31:47.012Z,1018.4
2017-11-07T03:32:27.534Z,1018.44
2017-11-07T03:33:08.064Z,1018.44
2017-11-07T03:33:48.610Z,1018.41
2017-11-07T03:34:29.149Z,1018.44
2017-11-07T03:35:09.679Z,1018.42
2017-11-07T03:35:50.205Z,1018.4
2017-11-07T03:36:30.735Z,1018.38
2017-11-07T03:37:11.271Z,1018.41
2017-11-07T03:37:51.800Z,1018.42
2017-11-07T03:38:32.339Z,1018.38
2017-11-07T03:39:12.861Z,1018.43
2017-11-07T03:39:53.404Z,1018.43
2017-11-07T03:40:33.940Z,1018.43
2017-11-07T03:41:14.484Z,1018.38
2017-11-07T03:41:55.013Z,1018.39
2017-11-07T03:42:35.545Z,1018.38
2017-11-07T03:43:16.086Z,1018.41
2017-11-07T03:43:56.610Z,1018.39
2017-11-07T03:44:37.139Z,1018.36
2017-11-07T03:45:17.678Z,1018.35
2017-11-07T03:45:58.219Z,1018.37
2017-11-07T03:46:38.755Z,1018.32
2017-11-07T03:47:19.289Z,1018.35
2017-11-07T03:47:59.813Z,1018.36
2017-11-07T03:48:40.348Z,1018.35
2017-11-07T03:49:20.882Z,1018.41
2017-11-07T03:50:01.412Z,1018.39
2017-11-07T03:50:41.951Z,1018.38
2017-11-07T03:51:22.471Z,1018.36
2017-11-07T03:52:03.003Z,1018.3
2017-11-07T03:52:43.528Z,1018.33
2017-11-07T03:53:24.060Z,1018.33
2017-11-07T03:54:04.590Z,1018.33
2017-11-07T03:54:45.120Z,1018.34
2017-11-07T03:55:25.665Z,1018.37
2017-11-07T03:56:06.199Z,1018.35
2017-11-07T03:56:46.729Z,1018.35
2017-11-07T03:57:27.264Z,1018.35
2017-11-07T03:58:07.788Z,1018.37
2017-11-07T03:58:48.326Z,1018.35
2017-11-07T03:59:28.858Z,1018.35
2017-11-07T04:00:09.386Z,1018.33
2017-11-07T04:00:49.898Z,1018.32
2017-11-07T04:01:30.419Z,1018.34
2017-11-07T04:02:10.950Z,1018.33
2017-11-07T04:02:51.488Z,1018.3
2017-11-07T04:03:32.028Z,1018.31
2017-11-07T04:04:12.547Z,1018.3
2017-11-07T04:04:53.076Z,1018.32
2017-11-07T04:05:33.587Z,1018.32
2017-11-07T04:06:14.116Z,1018.3
2017-11-07T04:06:54.641Z,1018.29
2017-11-07T04:07:35.176Z,1018.32
2017-11-07T04:08:15.702Z,1018.31
2017-11-07T04:08:56.237Z,1018.27
2017-11-07T04:09:36.790Z,1018.32
2017-11-07T04:10:17.321Z,1018.29
2017-11-07T04:10:57.848Z,1018.32
2017-11-07T04:11:38.380Z,1018.31
2017-11-07T04:12:18.907Z,1018.31
2017-11-07T04:12:59.449Z,1018.31
2017-11-07T04:13:39.974Z,1018.33
2017-11-07T04:14:20.507Z,1018.32
2017-11-07T04:15:01.030Z,1018.33
2017-11-07T04:15:41.563Z,1018.31
2017-11-07T04:16:22.106Z,1018.3
2017-11-07T04:17:02.629Z,1018.29
2017-11-07T04:17:43.161Z,1018.3
2017-11-07T04:18:23.692Z,1018.33
2017-11-07T04:19:04.212Z,1018.32
2017-11-07T04:19:44.750Z,1018.33
2017-11-07T04:20:25.338Z,1018.33
2017-11-07T04:21:06.005Z,1018.33
2017-11-07T04:21:46.520Z,1018.32
2017-11-07T04:22:27.052Z,1018.3
2017-11-07T04:23:07.591Z,1018.27
2017-11-07T04:23:48.125Z,1018.29
2017-11-07T04:24:28.653Z,1018.28
2017-11-07T04:25:09.185Z,1018.28
2017-11-07T04:25:49.721Z,1018.28
2017-11-07T04:26:30.350Z,1018.26
2017-11-07T04:27:10.977Z,1018.26
2017-11-07T04:27:51.495Z,1018.25
2017-11-07T04:28:32.112Z,1018.27
2017-11-07T04:29:12.719Z,1018.26
2017-11-07T04:29:53.350Z,1018.25
2017-11-07T04:30:33.871Z,1018.25
2017-11-07T04:31:14.412Z,1018.25
2017-11-07T04:31:54.952Z,1018.26
2017-11-07T04:32:35.474Z,1018.24
2017-11-07T04:33:16.004Z,1018.26
2017-11-07T04:33:56.535Z,1018.26
2017-11-07T04:34:37.082Z,1018.28
2017-11-07T04:35:17.781Z,1018.25
2017-11-07T04:35:58.619Z,1018.24
2017-11-07T04:36:39.236Z,1018.21
2017-11-07T04:37:20.119Z,1018.22
2017-11-07T04:38:00.598Z,1018.23
2017-11-07T04:38:41.166Z,1018.2
2017-11-07T04:39:21.763Z,1018.19
2017-11-07T04:40:02.295Z,1018.17
2017-11-07T04:40:42.827Z,1018.19
2017-11-07T04:41:23.354Z,1018.19
2017-11-07T04:42:03.881Z,1018.23
2017-11-07T04:42:44.413Z,1018.19
2017-11-07T04:43:24.948Z,1018.19
2017-11-07T04:44:05.510Z,1018.18
2017-11-07T04:44:46.039Z,1018.2
2017-11-07T04:45:26.592Z,1018.2
2017-11-07T04:46:07.142Z,1018.21
2017-11-07T04:46:47.671Z,1018.17
2017-11-07T04:47:28.201Z,1018.19
2017-11-07T04:48:08.729Z,1018.2
2017-11-07T04:48:49.252Z,1018.2
2017-11-07T04:49:29.768Z,1018.23
2017-11-07T04:50:10.292Z,1018.21
2017-11-07T04:50:50.842Z,1018.18
2017-11-07T04:51:31.381Z,1018.18
2017-11-07T04:52:11.921Z,1018.17
2017-11-07T04:52:52.451Z,1018.19
2017-11-07T04:53:33.034Z,1018.19
2017-11-07T04:54:13.559Z,1018.21
2017-11-07T04:54:54.091Z,1018.25
2017-11-07T04:55:34.614Z,1018.23
2017-11-07T04:56:15.146Z,1018.24
2017-11-07T04:56:55.658Z,1018.22
2017-11-07T04:57:36.197Z,1018.2
2017-11-07T04:58:16.722Z,1018.22
2017-11-07T04:58:57.253Z,1018.17
2017-11-07T04:59:37.776Z,1018.21
2017-11-07T05:00:18.311Z,1018.19
2017-11-07T05:00:58.831Z,1018.24
2017-11-07T05:01:39.394Z,1018.23
2017-11-07T05:02:19.946Z,1018.18
2017-11-07T05:03:00.450Z,1018.21
2017-11-07T05:03:40.976Z,1018.23
2017-11-07T05:04:21.512Z,1018.22
2017-11-07T05:05:02.048Z,1018.21
2017-11-07T05:05:42.583Z,1018.2
2017-11-07T05:06:23.116Z,1018.2
2017-11-07T05:07:03.628Z,1018.21
2017-11-07T05:07:44.155Z,1018.21
2017-11-07T05:08:24.694Z,1018.21
2017-11-07T05:09:05.218Z,1018.22
2017-11-07T05:09:45.755Z,1018.23
2017-11-07T05:10:26.267Z,1018.21
2017-11-07T05:11:06.813Z,1018.24
2017-11-07T05:11:47.328Z,1018.24
2017-11-07T05:12:27.853Z,1018.25
2017-11-07T05:13:08.380Z,1018.26
2017-11-07T05:13:48.924Z,1018.25
2017-11-07T05:14:29.458Z,1018.28
2017-11-07T05:15:09.970Z,1018.33
2017-11-07T05:15:50.486Z,1018.34
2017-11-07T05:16:31.021Z,1018.33
2017-11-07T05:17:11.559Z,1018.35
2017-11-07T05:17:52.090Z,1018.37
2017-11-07T05:18:32.604Z,1018.33
2017-11-07T05:19:13.133Z,1018.35
2017-11-07T05:19:53.641Z,1018.34
2017-11-07T05:20:34.153Z,1018.32
2017-11-07T05:21:14.680Z,1018.31
2017-11-07T05:21:55.221Z,1018.31
2017-11-07T05:22:35.749Z,1018.28
2017-11-07T05:23:16.276Z,1018.27
2017-11-07T05:23:56.826Z,1018.27
2017-11-07T05:24:37.343Z,1018.29
2017-11-07T05:25:18.177Z,1018.26
2017-11-07T05:25:58.704Z,1018.26
2017-11-07T05:26:39.213Z,1018.23
2017-11-07T05:27:19.742Z,1018.23
2017-11-07T05:28:00.274Z,1018.21
2017-11-07T05:28:40.844Z,1018.25
2017-11-07T05:29:22.370Z,1018.23
2017-11-07T05:30:02.880Z,1018.22
2017-11-07T05:30:43.423Z,1018.22
2017-11-07T05:31:23.950Z,1018.2
2017-11-07T05:32:04.465Z,1018.19
2017-11-07T05:32:44.978Z,1018.2
2017-11-07T05:33:25.499Z,1018.21
2017-11-07T05:34:06.016Z,1018.2
2017-11-07T05:34:46.531Z,1018.18
2017-11-07T05:35:27.052Z,1018.22
2017-11-07T05:36:07.572Z,1018.18
2017-11-07T05:36:48.072Z,1018.14
2017-11-07T05:37:28.610Z,1018.13
2017-11-07T05:38:09.132Z,1018.12
2017-11-07T05:38:49.656Z,1018.17
2017-11-07T05:39:30.187Z,1018.15
2017-11-07T05:40:10.772Z,1018.18
2017-11-07T05:40:51.294Z,1018.13
2017-11-07T05:41:31.821Z,1018.14
2017-11-07T05:42:12.357Z,1018.11
2017-11-07T05:42:52.894Z,1018.13
2017-11-07T05:43:33.399Z,1018.07
2017-11-07T05:44:13.963Z,1018.07
2017-11-07T05:44:54.479Z,1018.08
2017-11-07T05:45:34.998Z,1018.1
2017-11-07T05:46:15.590Z,1018.05
2017-11-07T05:46:56.110Z,1018.04
2017-11-07T05:47:36.612Z,1018.07
2017-11-07T05:48:17.141Z,1018.06
2017-11-07T05:48:57.666Z,1018.04
2017-11-07T05:49:38.221Z,1018.04
2017-11-07T05:50:18.748Z,1018.05
2017-11-07T05:50:59.277Z,1018.05
2017-11-07T05:51:39.802Z,1018.03
2017-11-07T05:52:20.337Z,1018.03
2017-11-07T05:53:00.866Z,1017.99
2017-11-07T05:53:41.395Z,1018.04
2017-11-07T05:54:21.934Z,1018.03
2017-11-07T05:55:02.459Z,1018.02
2017-11-07T05:55:42.998Z,1018.03
2017-11-07T05:56:23.511Z,1018.01
2017-11-07T05:57:04.036Z,1018.03
2017-11-07T05:57:44.560Z,1018
2017-11-07T05:58:25.101Z,1018.01
2017-11-07T05:59:05.623Z,1018.02
2017-11-07T05:59:46.145Z,1018
2017-11-07T06:00:26.663Z,1017.96
2017-11-07T06:01:07.174Z,1017.94
2017-11-07T06:01:47.694Z,1018.02
2017-11-07T06:02:28.213Z,1017.95
2017-11-07T06:03:08.742Z,1017.95
2017-11-07T06:03:49.267Z,1017.99
2017-11-07T06:04:29.800Z,1017.95
2017-11-07T06:05:10.313Z,1017.98
2017-11-07T06:05:50.823Z,1017.96
2017-11-07T06:06:31.355Z,1017.95
2017-11-07T06:07:12.828Z,1017.97
2017-11-07T06:07:53.348Z,1017.95
2017-11-07T06:08:33.870Z,1017.95
2017-11-07T06:09:14.406Z,1017.96
2017-11-07T06:09:54.933Z,1017.95
2017-11-07T06:10:35.447Z,1017.95
2017-11-07T06:11:16.000Z,1017.94
2017-11-07T06:11:56.526Z,1017.97
2017-11-07T06:12:37.046Z,1017.94
2017-11-07T06:13:17.578Z,1017.95
2017-11-07T06:13:58.106Z,1017.93
2017-11-07T06:14:38.640Z,1017.91
2017-11-07T06:15:19.164Z,1017.94
2017-11-07T06:15:59.694Z,1017.92
2017-11-07T06:16:40.216Z,1017.93
2017-11-07T06:17:20.755Z,1017.88
2017-11-07T06:18:01.274Z,1017.9
2017-11-07T06:18:41.811Z,1017.86
2017-11-07T06:19:22.324Z,1017.89
2017-11-07T06:20:02.830Z,1017.83
2017-11-07T06:20:43.337Z,1017.83
2017-11-07T06:21:23.842Z,1017.89
2017-11-07T06:22:04.390Z,1017.81
2017-11-07T06:22:44.899Z,1017.81
2017-11-07T06:23:25.421Z,1017.84
2017-11-07T06:24:05.956Z,1017.85
2017-11-07T06:24:46.489Z,1017.87
2017-11-07T06:25:27.313Z,1017.9
2017-11-07T06:26:07.837Z,1017.9
2017-11-07T06:26:48.377Z,1017.92
2017-11-07T06:27:28.916Z,1017.89
2017-11-07T06:28:09.442Z,1017.9
2017-11-07T06:28:49.997Z,1017.91
2017-11-07T06:29:30.522Z,1017.9
2017-11-07T06:30:11.052Z,1017.88
2017-11-07T06:30:51.588Z,1017.91
2017-11-07T06:31:32.111Z,1017.94
2017-11-07T06:32:12.631Z,1017.93
2017-11-07T06:32:53.150Z,1017.93
2017-11-07T06:33:33.791Z,1017.91
2017-11-07T06:34:14.344Z,1017.92
2017-11-07T06:34:54.879Z,1017.95
2017-11-07T06:35:35.413Z,1017.95
2017-11-07T06:36:15.968Z,1017.91
2017-11-07T06:36:56.457Z,1017.88
2017-11-07T06:37:36.982Z,1017.87
2017-11-07T06:38:17.514Z,1017.87
2017-11-07T06:38:58.038Z,1017.86
2017-11-07T06:39:38.574Z,1017.87
2017-11-07T06:40:19.094Z,1017.87
2017-11-07T06:40:59.615Z,1017.88
2017-11-07T06:41:40.139Z,1017.86
2017-11-07T06:42:20.659Z,1017.88
2017-11-07T06:43:01.193Z,1017.87
2017-11-07T06:43:41.754Z,1017.86
2017-11-07T06:44:22.252Z,1017.86
2017-11-07T06:45:02.791Z,1017.89
2017-11-07T06:45:43.290Z,1017.84
2017-11-07T06:46:23.836Z,1017.86
2017-11-07T06:47:04.367Z,1017.85
2017-11-07T06:47:44.894Z,1017.84
2017-11-07T06:48:25.419Z,1017.82
2017-11-07T06:49:05.954Z,1017.84
2017-11-07T06:49:46.466Z,1017.85
2017-11-07T06:50:26.996Z,1017.8
2017-11-07T06:51:07.522Z,1017.86
2017-11-07T06:51:48.271Z,1017.87
2017-11-07T06:52:28.913Z,1017.87
2017-11-07T06:53:09.468Z,1017.9
2017-11-07T06:53:49.998Z,1017.86
2017-11-07T06:54:30.564Z,1017.89
2017-11-07T06:55:11.100Z,1017.86
2017-11-07T06:55:51.636Z,1017.85
2017-11-07T06:56:32.162Z,1017.89
2017-11-07T06:57:12.686Z,1017.88
2017-11-07T06:57:53.227Z,1017.89
2017-11-07T06:58:33.733Z,1017.94
2017-11-07T06:59:14.249Z,1017.9
2017-11-07T06:59:54.767Z,1017.88
2017-11-07T07:00:35.276Z,1017.83
2017-11-07T07:01:15.799Z,1017.85
2017-11-07T07:01:56.337Z,1017.85
2017-11-07T07:02:36.851Z,1017.87
2017-11-07T07:03:17.387Z,1017.87
2017-11-07T07:03:57.904Z,1017.89
2017-11-07T07:04:38.437Z,1017.88
2017-11-07T07:05:18.960Z,1017.87
2017-11-07T07:05:59.498Z,1017.84
2017-11-07T07:06:40.007Z,1017.87
2017-11-07T07:07:20.537Z,1017.83
2017-11-07T07:08:01.054Z,1017.82
2017-11-07T07:08:41.575Z,1017.83
2017-11-07T07:09:22.112Z,1017.82
2017-11-07T07:10:02.636Z,1017.8
2017-11-07T07:10:43.149Z,1017.79
2017-11-07T07:11:23.690Z,1017.8
2017-11-07T07:12:04.214Z,1017.76
2017-11-07T07:12:44.753Z,1017.73
2017-11-07T07:13:25.266Z,1017.78
2017-11-07T07:14:05.810Z,1017.77
2017-11-07T07:14:46.325Z,1017.77
2017-11-07T07:15:26.866Z,1017.79
2017-11-07T07:16:07.387Z,1017.77
2017-11-07T07:16:47.919Z,1017.8
2017-11-07T07:17:28.450Z,1017.79
2017-11-07T07:18:08.976Z,1017.77
2017-11-07T07:18:49.501Z,1017.82
2017-11-07T07:19:30.015Z,1017.81
2017-11-07T07:20:10.546Z,1017.81
2017-11-07T07:20:51.099Z,1017.78
2017-11-07T07:21:31.620Z,1017.77
2017-11-07T07:22:12.146Z,1017.78
2017-11-07T07:22:52.669Z,1017.79
2017-11-07T07:23:33.208Z,1017.78
2017-11-07T07:24:13.741Z,1017.8
2017-11-07T07:24:54.269Z,1017.77
2017-11-07T07:25:34.807Z,1017.81
2017-11-07T07:26:15.341Z,1017.74
2017-11-07T07:26:55.864Z,1017.72
2017-11-07T07:27:36.393Z,1017.79
2017-11-07T07:28:16.925Z,1017.78
2017-11-07T07:28:57.456Z,1017.77
2017-11-07T07:29:37.968Z,1017.77
2017-11-07T07:30:18.496Z,1017.79
2017-11-07T07:30:59.019Z,1017.81
2017-11-07T07:31:39.543Z,1017.79
2017-11-07T07:32:20.066Z,1017.77
2017-11-07T07:33:00.604Z,1017.8
2017-11-07T07:33:41.129Z,1017.8
2017-11-07T07:34:21.648Z,1017.79
2017-11-07T07:35:02.181Z,1017.8
2017-11-07T07:35:42.712Z,1017.78
2017-11-07T07:36:23.239Z,1017.78
2017-11-07T07:37:03.749Z,1017.82
2017-11-07T07:37:44.268Z,1017.76
2017-11-07T07:38:24.797Z,1017.77
2017-11-07T07:39:05.310Z,1017.78
2017-11-07T07:39:45.832Z,1017.79
2017-11-07T07:40:26.352Z,1017.78
2017-11-07T07:41:06.876Z,1017.73
2017-11-07T07:41:47.400Z,1017.72
2017-11-07T07:42:27.928Z,1017.76
2017-11-07T07:43:08.460Z,1017.71
2017-11-07T07:43:48.990Z,1017.73
2017-11-07T07:44:29.532Z,1017.73
2017-11-07T07:45:10.068Z,1017.69
2017-11-07T07:45:50.610Z,1017.73
2017-11-07T07:46:31.161Z,1017.72
2017-11-07T07:47:11.700Z,1017.7
2017-11-07T07:47:52.225Z,1017.71
2017-11-07T07:48:32.763Z,1017.7
2017-11-07T07:49:13.287Z,1017.69
2017-11-07T07:49:53.805Z,1017.7
2017-11-07T07:50:34.335Z,1017.68
2017-11-07T07:51:14.854Z,1017.64
2017-11-07T07:51:55.391Z,1017.61
2017-11-07T07:52:35.936Z,1017.62
2017-11-07T07:53:16.475Z,1017.62
2017-11-07T07:53:57.000Z,1017.58
2017-11-07T07:54:37.512Z,1017.63
2017-11-07T07:55:18.039Z,1017.59
2017-11-07T07:55:58.566Z,1017.57
2017-11-07T07:56:39.093Z,1017.59
2017-11-07T07:57:19.610Z,1017.57
2017-11-07T07:58:00.140Z,1017.57
2017-11-07T07:58:40.665Z,1017.59
2017-11-07T07:59:21.233Z,1017.55
2017-11-07T08:00:01.729Z,1017.57
2017-11-07T08:00:42.263Z,1017.58
2017-11-07T08:01:22.784Z,1017.59
2017-11-07T08:02:03.313Z,1017.53
2017-11-07T08:02:43.833Z,1017.53
2017-11-07T08:03:24.367Z,1017.57
2017-11-07T08:04:04.892Z,1017.59
2017-11-07T08:04:45.424Z,1017.55
2017-11-07T08:05:25.968Z,1017.54
2017-11-07T08:06:06.482Z,1017.57
2017-11-07T08:06:46.992Z,1017.57
2017-11-07T08:07:27.538Z,1017.52
2017-11-07T08:08:08.077Z,1017.53
2017-11-07T08:08:48.611Z,1017.54
2017-11-07T08:09:29.134Z,1017.53
2017-11-07T08:10:09.646Z,1017.49
2017-11-07T08:10:50.183Z,1017.52
2017-11-07T08:11:30.722Z,1017.52
2017-11-07T08:12:11.237Z,1017.51